createdAt,value
2018-07-07T00:01:18.853Z,86.66
2018-07-07T00:03:47.432Z,86.63
2018-07-07T00:06:15.781Z,83.78
2018-07-07T00:08:44.148Z,82.43
2018-07-07T00:11:12.550Z,82.34
2018-07-07T00:13:40.904Z,80.15
2018-07-07T00:16:09.303Z,80.12
2018-07-07T00:18:37.669Z,82.11
2018-07-07T00:21:06.314Z,84.02
2018-07-07T00:23:34.677Z,80.74
2018-07-07T00:26:03.567Z,80.12
2018-07-07T00:28:32.596Z,80.17
2018-07-07T00:31:00.930Z,80.35
2018-07-07T00:33:29.569Z,85.45
2018-07-07T00:35:57.878Z,83.96
2018-07-07T00:38:26.162Z,84.64
2018-07-07T00:40:54.460Z,82.95
2018-07-07T00:43:22.819Z,85.16
2018-07-07T00:45:51.191Z,83.78
2018-07-07T00:48:19.569Z,82.57
2018-07-07T00:50:48.053Z,83.69
2018-07-07T00:53:16.405Z,84.67
2018-07-07T00:55:44.746Z,83.77
2018-07-07T00:58:13.939Z,85.72
2018-07-07T01:00:50.981Z,86.79
2018-07-07T01:03:19.651Z,87.65
2018-07-07T01:05:48.689Z,82.74
2018-07-07T01:08:17.891Z,83.36
2018-07-07T01:10:46.256Z,84.57
2018-07-07T01:13:15.675Z,85.33
2018-07-07T01:15:44.017Z,82.32
2018-07-07T01:18:12.301Z,85.81
2018-07-07T01:20:40.673Z,86.23
2018-07-07T01:23:09.061Z,85.06
2018-07-07T01:25:37.401Z,80.78
2018-07-07T01:28:06.277Z,83.53
2018-07-07T01:30:34.894Z,84.36
2018-07-07T01:33:03.285Z,86.75
2018-07-07T01:35:31.693Z,83.61
2018-07-07T01:38:00.036Z,82.46
2018-07-07T01:40:28.437Z,85.31
2018-07-07T01:42:56.749Z,87.29
2018-07-07T01:45:25.128Z,88.83
2018-07-07T01:47:53.445Z,91.47
2018-07-07T01:50:21.766Z,91.43
2018-07-07T01:52:50.306Z,90.66
2018-07-07T01:55:18.651Z,92.92
2018-07-07T01:57:46.968Z,86.62
2018-07-07T02:00:15.307Z,88.45
2018-07-07T02:02:43.706Z,87.92
2018-07-07T02:05:12.078Z,86.46
2018-07-07T02:07:40.357Z,85.92
2018-07-07T02:10:08.802Z,88.37
2018-07-07T02:12:37.271Z,88.03
2018-07-07T02:15:05.941Z,93.49
2018-07-07T02:17:34.288Z,90.55
2018-07-07T02:20:02.676Z,89.92
2018-07-07T02:22:31.001Z,90.21
2018-07-07T02:24:59.308Z,88.42
2018-07-07T02:27:27.737Z,91.10
2018-07-07T02:29:56.113Z,89.71
2018-07-07T02:32:24.437Z,89.99
2018-07-07T02:34:52.764Z,90.62
2018-07-07T02:37:21.127Z,92.18
2018-07-07T02:39:49.499Z,91.50
2018-07-07T02:42:17.887Z,91.59
2018-07-07T02:44:46.232Z,90.40
2018-07-07T02:47:14.677Z,89.95
2018-07-07T02:49:43.040Z,94.43
2018-07-07T02:52:11.390Z,87.26
2018-07-07T02:54:39.744Z,91.70
2018-07-07T02:57:08.074Z,88.10
2018-07-07T02:59:36.461Z,90.95
2018-07-07T03:02:04.753Z,90.97
2018-07-07T03:04:33.133Z,91.64
2018-07-07T03:07:01.498Z,91.08
2018-07-07T03:09:29.860Z,89.86
2018-07-07T03:11:58.241Z,89.29
2018-07-07T03:14:26.568Z,90.46
2018-07-07T03:16:55.325Z,83.97
2018-07-07T03:19:23.793Z,85.60
2018-07-07T03:21:52.083Z,87.16
2018-07-07T03:24:20.493Z,87.84
2018-07-07T03:26:48.828Z,89.37
2018-07-07T03:29:17.271Z,88.61
2018-07-07T03:31:45.556Z,89.94
2018-07-07T03:34:14.024Z,92.34
2018-07-07T03:36:42.287Z,87.90
2018-07-07T03:39:11.173Z,91.26
2018-07-07T03:41:40.183Z,88.58
2018-07-07T03:44:08.626Z,88.51
2018-07-07T03:46:37.145Z,87.27
2018-07-07T03:49:05.840Z,87.92
2018-07-07T03:51:34.438Z,88.86
2018-07-07T03:54:02.781Z,87.81
2018-07-07T03:56:31.101Z,83.58
2018-07-07T03:58:59.464Z,87.11
2018-07-07T04:01:27.936Z,88.71
2018-07-07T04:03:56.235Z,88.44
2018-07-07T04:06:24.641Z,91.28
2018-07-07T04:08:52.966Z,88.66
2018-07-07T04:11:21.296Z,87.99
2018-07-07T04:13:49.651Z,87.95
2018-07-07T04:16:18.055Z,85.72
2018-07-07T04:18:46.384Z,81.96
2018-07-07T04:21:14.700Z,81.78
2018-07-07T04:23:43.239Z,82.15
2018-07-07T04:26:11.612Z,81.41
2018-07-07T04:28:40.002Z,81.59
2018-07-07T04:31:08.389Z,85.58
2018-07-07T04:33:36.694Z,84.44
2018-07-07T04:36:05.258Z,82.76
2018-07-07T04:38:33.571Z,80.93
2018-07-07T04:41:01.976Z,80.94
2018-07-07T04:43:30.310Z,84.08
2018-07-07T04:45:58.670Z,85.11
2018-07-07T04:48:26.994Z,85.92
2018-07-07T04:50:55.375Z,86.79
2018-07-07T04:53:23.756Z,87.75
2018-07-07T04:55:52.403Z,87.94
2018-07-07T04:58:20.721Z,87.80
2018-07-07T05:00:49.112Z,87.07
2018-07-07T05:03:17.429Z,87.33
2018-07-07T05:05:45.713Z,86.30
2018-07-07T05:08:14.061Z,84.60
2018-07-07T05:10:42.451Z,83.78
2018-07-07T05:13:10.846Z,83.39
2018-07-07T05:15:39.246Z,82.41
2018-07-07T05:18:07.573Z,82.61
2018-07-07T05:20:35.943Z,81.44
2018-07-07T05:23:04.298Z,81.70
2018-07-07T05:25:32.607Z,82.61
2018-07-07T05:28:00.951Z,83.38
2018-07-07T05:30:31.910Z,82.65
2018-07-07T05:33:00.964Z,82.65
2018-07-07T05:35:29.231Z,82.27
2018-07-07T05:37:58.340Z,79.73
2018-07-07T05:40:26.856Z,81.33
2018-07-07T05:42:55.426Z,81.50
2018-07-07T05:45:23.788Z,82.36
2018-07-07T05:47:52.312Z,83.41
2018-07-07T05:50:20.631Z,82.88
2018-07-07T05:52:48.951Z,82.69
2018-07-07T05:55:17.417Z,81.63
2018-07-07T05:57:45.754Z,79.45
2018-07-07T06:00:14.755Z,78.06
2018-07-07T06:02:43.068Z,77.88
2018-07-07T06:05:11.636Z,77.51
2018-07-07T06:07:40.216Z,75.84
2018-07-07T06:10:08.903Z,75.33
2018-07-07T06:12:37.625Z,74.65
2018-07-07T06:15:06.726Z,72.60
2018-07-07T06:17:35.055Z,70.78
2018-07-07T06:20:04.232Z,68.33
2018-07-07T06:22:32.578Z,68.20
2018-07-07T06:25:00.877Z,64.88
2018-07-07T06:27:29.465Z,60.96
2018-07-07T06:29:57.914Z,57.94
2018-07-07T06:32:26.400Z,59.00
2018-07-07T06:34:54.924Z,60.13
2018-07-07T06:37:23.277Z,59.47
2018-07-07T06:39:51.649Z,58.85
2018-07-07T06:42:20.020Z,58.50
2018-07-07T06:44:48.421Z,56.05
2018-07-07T06:47:16.767Z,58.97
2018-07-07T06:49:45.353Z,58.05
2018-07-07T06:52:13.718Z,57.46
2018-07-07T06:54:42.156Z,58.30
2018-07-07T06:57:10.495Z,57.55
2018-07-07T06:59:38.959Z,58.10
2018-07-07T07:02:07.622Z,59.11
2018-07-07T07:04:38.912Z,60.67
2018-07-07T07:07:15.606Z,58.67
2018-07-07T07:12:28.731Z,57.05
2018-07-07T07:14:56.990Z,55.14
2018-07-07T07:17:25.335Z,55.26
2018-07-07T07:19:53.771Z,55.74
2018-07-07T07:22:26.145Z,54.80
2018-07-07T07:25:00.912Z,54.96
2018-07-07T07:27:30.376Z,53.95
2018-07-07T07:29:58.720Z,52.87
2018-07-07T07:32:27.203Z,53.53
2018-07-07T07:34:55.695Z,50.88
2018-07-07T07:37:24.111Z,52.14
2018-07-07T07:39:52.412Z,49.59
2018-07-07T07:42:20.797Z,50.06
2018-07-07T07:44:49.425Z,50.67
2018-07-07T07:47:17.940Z,49.19
2018-07-07T07:49:46.305Z,48.54
2018-07-07T07:52:14.647Z,48.07
2018-07-07T07:54:42.991Z,49.26
2018-07-07T07:57:11.349Z,47.24
2018-07-07T07:59:39.837Z,48.27
2018-07-07T08:02:08.155Z,48.82
2018-07-07T08:04:36.616Z,46.64
2018-07-07T08:07:04.999Z,46.76
2018-07-07T08:09:33.419Z,47.91
2018-07-07T08:12:01.838Z,48.36
2018-07-07T08:14:30.193Z,47.77
2018-07-07T08:16:58.578Z,47.20
2018-07-07T08:19:27.529Z,47.32
2018-07-07T08:21:55.832Z,45.75
2018-07-07T08:24:24.165Z,47.23
2018-07-07T08:26:52.754Z,47.55
2018-07-07T08:29:21.063Z,45.22
2018-07-07T08:31:49.578Z,48.28
2018-07-07T08:34:18.241Z,44.98
2018-07-07T08:36:46.891Z,44.93
2018-07-07T08:39:15.274Z,42.18
2018-07-07T08:41:44.289Z,41.29
2018-07-07T08:44:13.141Z,38.92
2018-07-07T08:46:42.096Z,39.49
2018-07-07T08:49:10.605Z,41.69
2018-07-07T08:51:38.856Z,39.76
2018-07-07T08:54:07.153Z,39.63
2018-07-07T08:56:35.465Z,38.50
2018-07-07T08:59:03.764Z,39.13
2018-07-07T09:01:32.075Z,36.52
2018-07-07T09:04:00.524Z,38.46
2018-07-07T09:06:28.925Z,41.02
2018-07-07T09:08:57.383Z,37.82
2018-07-07T09:11:25.797Z,37.86
2018-07-07T09:13:54.142Z,35.85
2018-07-07T09:16:24.871Z,35.94
2018-07-07T09:18:53.565Z,37.16
2018-07-07T09:21:23.258Z,35.68
2018-07-07T09:23:51.995Z,36.71
2018-07-07T09:26:38.306Z,37.23
2018-07-07T09:29:15.156Z,37.04
2018-07-07T09:31:54.298Z,39.92
2018-07-07T09:34:24.781Z,36.77
2018-07-07T09:36:56.331Z,34.79
2018-07-07T09:39:24.772Z,34.98
2018-07-07T09:41:53.905Z,35.76
2018-07-07T09:44:25.554Z,33.56
2018-07-07T09:46:54.442Z,35.19
2018-07-07T09:49:22.967Z,35.72
2018-07-07T09:51:51.368Z,35.13
2018-07-07T09:54:19.720Z,34.31
2018-07-07T09:56:48.747Z,34.99
2018-07-07T09:59:17.116Z,34.78
2018-07-07T10:01:45.509Z,33.92
2018-07-07T10:04:13.926Z,32.08
2018-07-07T10:06:42.258Z,32.94
2018-07-07T10:09:10.713Z,32.65
2018-07-07T10:11:39.110Z,32.53
2018-07-07T10:14:07.416Z,32.82
2018-07-07T10:16:35.717Z,35.03
2018-07-07T10:19:04.108Z,31.23
2018-07-07T10:21:36.834Z,32.83
2018-07-07T10:24:05.453Z,32.89
2018-07-07T10:26:33.689Z,32.55
2018-07-07T10:29:01.983Z,31.20
2018-07-07T10:31:30.522Z,30.63
2018-07-07T10:33:59.192Z,30.70
2018-07-07T10:36:27.554Z,31.75
2018-07-07T10:38:55.888Z,30.56
2018-07-07T10:41:24.229Z,33.04
2018-07-07T10:43:52.506Z,31.06
2018-07-07T10:46:20.806Z,32.30
2018-07-07T10:48:49.288Z,34.90
2018-07-07T10:51:17.568Z,34.24
2018-07-07T10:53:45.993Z,34.75
2018-07-07T10:56:14.325Z,33.43
2018-07-07T10:58:42.645Z,34.27
2018-07-07T11:01:11.083Z,36.98
2018-07-07T11:03:39.353Z,34.20
2018-07-07T11:06:07.757Z,34.28
2018-07-07T11:08:36.119Z,31.76
2018-07-07T11:11:04.517Z,35.32
2018-07-07T11:13:32.856Z,32.25
2018-07-07T11:16:01.325Z,31.32
2018-07-07T11:18:29.669Z,30.22
2018-07-07T11:20:57.941Z,30.56
2018-07-07T11:23:26.273Z,32.01
2018-07-07T11:25:54.876Z,33.22
2018-07-07T11:28:23.269Z,30.41
2018-07-07T11:30:51.846Z,29.86
2018-07-07T11:33:20.264Z,32.87
2018-07-07T11:35:48.522Z,30.36
2018-07-07T11:38:16.925Z,30.28
2018-07-07T11:40:45.277Z,29.44
2018-07-07T11:43:13.629Z,31.98
2018-07-07T11:45:41.989Z,27.86
2018-07-07T11:48:10.517Z,33.15
2018-07-07T11:50:38.936Z,30.52
2018-07-07T11:53:07.306Z,30.89
2018-07-07T11:55:35.601Z,30.29
2018-07-07T11:58:04.064Z,28.19
2018-07-07T12:00:46.865Z,27.97
2018-07-07T12:03:15.285Z,26.70
2018-07-07T12:05:43.745Z,23.62
2018-07-07T12:08:13.992Z,24.58
2018-07-07T12:10:40.628Z,24.93
2018-07-07T12:13:09.253Z,22.77
2018-07-07T12:24:16.173Z,19.18
2018-07-07T12:27:15.650Z,20.62
2018-07-07T12:29:44.494Z,20.53
2018-07-07T12:32:13.043Z,19.28
2018-07-07T12:34:41.443Z,22.33
2018-07-07T12:37:09.705Z,20.95
2018-07-07T12:39:38.702Z,17.33
2018-07-07T12:42:07.093Z,19.30
2018-07-07T12:44:35.421Z,18.34
2018-07-07T12:47:03.739Z,17.23
2018-07-07T12:49:32.120Z,18.75
2018-07-07T12:52:00.458Z,16.52
2018-07-07T12:54:28.793Z,16.79
2018-07-07T12:56:57.102Z,22.00
2018-07-07T12:59:25.399Z,23.90
2018-07-07T13:01:53.891Z,26.13
2018-07-07T13:04:22.262Z,26.19
2018-07-07T13:06:50.617Z,24.97
2018-07-07T13:09:18.984Z,22.46
2018-07-07T13:11:47.220Z,19.73
2018-07-07T13:14:15.651Z,18.72
2018-07-07T13:16:44.016Z,17.65
2018-07-07T13:19:12.546Z,16.74
2018-07-07T13:21:41.136Z,14.89
2018-07-07T13:24:11.194Z,15.09
2018-07-07T13:26:39.592Z,15.91
2018-07-07T13:29:07.881Z,15.90
2018-07-07T13:31:36.324Z,14.10
2018-07-07T13:34:04.736Z,13.37
2018-07-07T13:36:33.068Z,12.79
2018-07-07T13:39:01.322Z,13.57
2018-07-07T13:41:29.709Z,11.31
2018-07-07T13:43:58.057Z,11.19
2018-07-07T13:46:26.388Z,11.38
2018-07-07T13:48:54.705Z,12.63
2018-07-07T13:51:23.393Z,13.24
2018-07-07T13:53:51.739Z,13.43
2018-07-07T13:56:20.054Z,15.52
2018-07-07T13:58:48.294Z,14.96
2018-07-07T14:01:16.827Z,16.53
2018-07-07T14:03:45.353Z,17.88
2018-07-07T14:06:13.746Z,16.76
2018-07-07T14:08:42.189Z,14.80
2018-07-07T14:11:10.536Z,14.54
2018-07-07T14:13:38.881Z,13.16
2018-07-07T14:16:07.449Z,11.81
2018-07-07T14:18:35.820Z,12.61
2018-07-07T14:21:04.160Z,10.83
2018-07-07T14:23:32.669Z,10.91
2018-07-07T14:26:00.944Z,9.77
2018-07-07T14:28:29.245Z,10.27
2018-07-07T14:30:57.576Z,8.50
2018-07-07T14:33:25.877Z,9.91
2018-07-07T14:35:54.190Z,17.67
2018-07-07T14:38:30.561Z,17.92
2018-07-07T14:41:11.177Z,14.91
2018-07-07T14:43:53.896Z,10.92
2018-07-07T14:46:22.781Z,8.92
2018-07-07T14:48:51.337Z,7.37
2018-07-07T14:51:19.689Z,7.17
2018-07-07T14:53:48.251Z,6.60
2018-07-07T14:56:18.024Z,7.08
2018-07-07T14:58:46.541Z,8.28
2018-07-07T15:01:14.928Z,7.93
2018-07-07T15:03:43.741Z,8.89
2018-07-07T15:06:11.968Z,7.22
2018-07-07T15:08:40.400Z,6.53
2018-07-07T15:11:09.321Z,7.57
2018-07-07T15:13:38.264Z,9.62
2018-07-07T15:16:07.057Z,7.43
2018-07-07T15:18:35.875Z,8.38
2018-07-07T15:21:04.572Z,7.88
2018-07-07T15:23:33.036Z,7.08
2018-07-07T15:26:01.801Z,9.63
2018-07-07T15:28:30.183Z,9.26
2018-07-07T15:30:58.760Z,8.70
2018-07-07T15:33:27.119Z,9.33
2018-07-07T15:35:55.417Z,8.25
2018-07-07T15:38:23.771Z,8.56
2018-07-07T15:40:52.129Z,8.64
2018-07-07T15:43:20.421Z,8.47
2018-07-07T15:45:48.747Z,8.61
2018-07-07T15:48:17.394Z,8.57
2018-07-07T15:50:45.799Z,10.06
2018-07-07T15:53:14.191Z,10.68
2018-07-07T15:55:42.423Z,9.94
2018-07-07T15:58:10.802Z,8.20
2018-07-07T16:00:39.134Z,8.12
2018-07-07T16:03:07.449Z,7.60
2018-07-07T16:05:35.707Z,9.80
2018-07-07T16:08:04.135Z,8.93
2018-07-07T16:10:32.602Z,8.21
2018-07-07T16:13:00.924Z,9.35
2018-07-07T16:15:29.265Z,9.92
2018-07-07T16:17:57.605Z,9.60
2018-07-07T16:20:25.869Z,14.05
2018-07-07T16:22:54.255Z,17.31
2018-07-07T16:25:22.665Z,19.71
2018-07-07T16:27:51.029Z,20.46
2018-07-07T16:30:19.269Z,16.73
2018-07-07T16:32:47.601Z,13.12
2018-07-07T16:35:15.955Z,12.41
2018-07-07T16:37:44.360Z,12.85
2018-07-07T16:40:12.702Z,11.81
2018-07-07T16:42:42.428Z,12.68
2018-07-07T16:45:10.923Z,12.34
2018-07-07T16:47:39.364Z,18.24
2018-07-07T16:50:07.797Z,20.80
2018-07-07T16:52:36.221Z,21.37
2018-07-07T16:55:04.590Z,18.12
2018-07-07T16:57:32.996Z,17.40
2018-07-07T17:00:01.390Z,17.34
2018-07-07T17:02:30.294Z,14.24
2018-07-07T17:04:58.595Z,13.55
2018-07-07T17:07:27.122Z,16.92
2018-07-07T17:09:55.519Z,16.48
2018-07-07T17:12:24.253Z,18.11
2018-07-07T17:14:52.654Z,20.56
2018-07-07T17:17:21.872Z,22.06
2018-07-07T17:19:50.181Z,24.03
2018-07-07T17:22:18.614Z,24.81
2018-07-07T17:24:47.089Z,27.52
2018-07-07T17:27:16.028Z,28.12
2018-07-07T17:29:44.415Z,27.35
2018-07-07T17:32:12.737Z,21.29
2018-07-07T17:34:42.221Z,19.31
2018-07-07T17:37:10.602Z,17.39
2018-07-07T17:39:38.934Z,16.28
2018-07-07T17:42:07.888Z,15.95
2018-07-07T17:44:36.247Z,15.67
2018-07-07T17:47:04.598Z,15.87
2018-07-07T17:49:33.050Z,17.41
2018-07-07T17:52:01.436Z,17.11
2018-07-07T17:54:30.353Z,16.62
2018-07-07T17:56:59.100Z,17.16
2018-07-07T17:59:27.511Z,17.59
2018-07-07T18:01:55.879Z,18.07
2018-07-07T18:04:24.292Z,19.98
2018-07-07T18:06:52.860Z,24.03
2018-07-07T18:09:21.148Z,27.10
2018-07-07T18:11:49.987Z,30.11
2018-07-07T18:14:18.426Z,31.41
2018-07-07T18:16:51.934Z,33.30
2018-07-07T18:19:21.064Z,34.76
2018-07-07T18:21:50.159Z,36.14
2018-07-07T18:24:18.682Z,37.19
2018-07-07T18:26:47.769Z,37.88
2018-07-07T18:29:16.276Z,37.74
2018-07-07T18:31:44.633Z,39.10
2018-07-07T18:34:13.076Z,39.78
2018-07-07T18:36:41.373Z,41.97
2018-07-07T18:39:09.733Z,40.65
2018-07-07T18:41:38.801Z,40.37
2018-07-07T18:44:07.244Z,41.25
2018-07-07T18:46:35.761Z,42.30
2018-07-07T18:49:04.797Z,41.95
2018-07-07T18:51:33.318Z,42.19
2018-07-07T18:54:03.773Z,42.51
2018-07-07T18:56:33.110Z,45.03
2018-07-07T18:59:01.565Z,43.71
2018-07-07T19:01:29.939Z,43.35
2018-07-07T19:03:58.855Z,44.67
2018-07-07T19:06:27.164Z,44.31
2018-07-07T19:09:01.475Z,45.61
2018-07-07T19:11:29.846Z,45.34
2018-07-07T19:13:58.156Z,44.98
2018-07-07T19:16:26.679Z,45.84
2018-07-07T19:18:55.163Z,45.88
2018-07-07T19:23:32.045Z,46.85
2018-07-07T19:26:05.946Z,47.00
2018-07-07T19:28:34.259Z,47.03
2018-07-07T19:31:02.563Z,47.18
2018-07-07T19:33:36.124Z,47.46
2018-07-07T19:36:09.873Z,47.38
2018-07-07T19:38:38.725Z,48.41
2018-07-07T19:41:07.683Z,48.22
2018-07-07T19:43:38.419Z,48.09
2018-07-07T19:46:06.729Z,48.55
2018-07-07T19:48:35.181Z,48.96
2018-07-07T19:51:03.621Z,49.42
2018-07-07T19:53:32.177Z,49.09
2018-07-07T19:56:00.517Z,49.13
2018-07-07T19:58:28.884Z,48.42
2018-07-07T20:00:57.216Z,48.64
2018-07-07T20:03:25.587Z,48.44
2018-07-07T20:05:54.188Z,47.79
2018-07-07T20:08:22.481Z,48.19
2018-07-07T20:10:51.038Z,48.05
2018-07-07T20:13:19.534Z,47.82
2018-07-07T20:16:19.598Z,49.25
2018-07-07T20:19:23.047Z,49.99
2018-07-07T20:21:55.911Z,49.13
2018-07-07T20:24:40.158Z,49.31
2018-07-07T20:27:14.430Z,50.50
2018-07-07T20:29:43.196Z,51.41
2018-07-07T20:32:16.906Z,49.91
2018-07-07T20:34:45.273Z,51.18
2018-07-07T20:37:13.702Z,50.32
2018-07-07T20:39:42.148Z,51.18
2018-07-07T20:42:10.739Z,51.14
2018-07-07T20:44:39.104Z,51.20
2018-07-07T20:47:07.617Z,52.61
2018-07-07T20:49:35.947Z,52.64
2018-07-07T20:52:04.517Z,52.85
2018-07-07T20:54:33.325Z,53.42
2018-07-07T20:57:02.332Z,53.97
2018-07-07T20:59:31.467Z,55.78
2018-07-07T21:02:00.066Z,56.48
2018-07-07T21:04:28.319Z,57.90
2018-07-07T21:06:56.956Z,57.27
2018-07-07T21:09:25.313Z,58.72
2018-07-07T21:11:53.951Z,58.49
2018-07-07T21:14:22.499Z,57.63
2018-07-07T21:16:51.024Z,57.56
2018-07-07T21:19:19.505Z,57.71
2018-07-07T21:21:47.928Z,58.74
2018-07-07T21:24:16.456Z,59.30
2018-07-07T21:26:44.963Z,59.42
2018-07-07T21:29:13.445Z,59.88
2018-07-07T21:31:41.821Z,60.35
2018-07-07T21:34:10.125Z,61.40
2018-07-07T21:36:38.578Z,62.17
2018-07-07T21:39:07.130Z,63.14
2018-07-07T21:41:35.610Z,63.77
2018-07-07T21:44:04.097Z,64.39
2018-07-07T21:46:32.571Z,64.71
2018-07-07T21:49:00.987Z,65.78
2018-07-07T21:51:29.395Z,66.34
2018-07-07T21:53:57.887Z,67.64
2018-07-07T21:56:26.401Z,68.62
2018-07-07T21:59:00.107Z,68.64
2018-07-07T22:02:11.917Z,69.25
2018-07-07T22:04:45.518Z,70.15
2018-07-07T22:07:19.220Z,70.92
2018-07-07T22:09:47.730Z,71.13
2018-07-07T22:12:16.104Z,71.64
2018-07-07T22:14:44.582Z,71.90
2018-07-07T22:17:13.042Z,72.13
2018-07-07T22:19:41.529Z,72.42
2018-07-07T22:22:10.832Z,72.99
2018-07-07T22:24:40.128Z,72.65
2018-07-07T22:27:09.716Z,73.69
2018-07-07T22:29:38.320Z,74.85
2018-07-07T22:32:10.968Z,75.09
2018-07-07T22:34:40.142Z,75.22
2018-07-07T22:37:08.920Z,75.86
2018-07-07T22:39:39.493Z,76.21
2018-07-07T22:42:09.149Z,76.91
2018-07-07T22:44:38.241Z,77.28
2018-07-07T22:47:06.574Z,77.66
2018-07-07T22:49:35.091Z,77.92
2018-07-07T22:52:03.784Z,78.37
2018-07-07T22:54:32.072Z,78.78
2018-07-07T22:57:00.497Z,78.85
2018-07-07T22:59:28.994Z,80.01
2018-07-07T23:01:57.409Z,80.52
2018-07-07T23:04:25.723Z,79.98
2018-07-07T23:06:54.107Z,79.92
2018-07-07T23:09:22.601Z,80.60
2018-07-07T23:11:50.929Z,80.09
2018-07-07T23:14:19.210Z,79.55
2018-07-07T23:16:47.531Z,78.80
2018-07-07T23:19:15.979Z,76.47
2018-07-07T23:21:44.308Z,76.66
2018-07-07T23:24:12.661Z,68.92
2018-07-07T23:26:41.083Z,67.83
2018-07-07T23:29:09.397Z,67.46
2018-07-07T23:31:38.332Z,66.52
2018-07-07T23:34:06.692Z,65.36
2018-07-07T23:36:35.092Z,65.79
2018-07-07T23:39:03.997Z,66.11
2018-07-07T23:41:32.290Z,67.20
2018-07-07T23:44:00.625Z,67.13
2018-07-07T23:46:29.011Z,70.44
2018-07-07T23:48:57.448Z,73.55
2018-07-07T23:51:25.789Z,75.41
2018-07-07T23:53:54.133Z,76.61
2018-07-07T23:56:22.444Z,78.04
2018-07-07T23:58:50.980Z,78.80
